Time;durP1;ratioP1;P1;durP2;ratioP2;P2;SDS_P1;SDS_P2;PMS_P1;PMS_P2;Temp;Humidity;BMP_temperature;BMP_pressure;BME280_temperature;BME280_humidity;BME280_pressure;Samples;Min_cycle;Max_cycle;Signal;HPM_P1;HPM_P2
2023/03/21 07:04:55;;;;;;;3.13;1.20;;;16.40;99.90;;;;;;5091453;28;20428;-68
2023/03/21 07:07:25;;;;;;;6.22;1.45;;;16.50;99.90;;;;;;5075331;28;20032;-66
2023/03/21 07:09:51;;;;;;;4.10;1.45;;;16.50;99.90;;;;;;5093098;28;20035;-67
2023/03/21 07:12:17;;;;;;;4.10;1.92;;;16.50;99.90;;;;;;5058645;28;20107;-67
2023/03/21 07:15:03;;;;;;;4.47;1.63;;;16.60;99.90;;;;;;5093155;28;20056;-67
2023/03/21 07:17:30;;;;;;;12.70;7.38;;;16.60;99.90;;;;;;5058092;28;20052;-68
2023/03/21 07:19:56;;;;;;;7.65;2.47;;;16.70;99.90;;;;;;5074815;28;20036;-66
2023/03/21 07:22:22;;;;;;;3.58;1.70;;;16.80;99.90;;;;;;5092860;28;20029;-67
2023/03/21 07:24:48;;;;;;;5.63;1.52;;;16.80;99.90;;;;;;5092606;28;20055;-66
2023/03/21 07:27:15;;;;;;;5.82;1.75;;;16.90;99.90;;;;;;5074974;28;20074;-67
2023/03/21 07:29:42;;;;;;;7.43;1.67;;;16.90;99.90;;;;;;5074239;28;20020;-67
2023/03/21 07:32:09;;;;;;;3.40;1.50;;;17.00;99.90;;;;;;5074738;28;20560;-67
2023/03/21 07:34:36;;;;;;;5.30;1.55;;;17.00;99.90;;;;;;5081580;28;20108;-66
2023/03/21 07:37:04;;;;;;;4.68;1.63;;;17.00;99.90;;;;;;5055070;28;20063;-66
2023/03/21 07:39:31;;;;;;;2.85;1.45;;;17.10;99.90;;;;;;5054577;28;20067;-66
2023/03/21 07:41:58;;;;;;;2.58;1.33;;;17.10;99.90;;;;;;5037908;28;20359;-67
2023/03/21 07:44:32;;;;;;;4.43;1.48;;;17.10;99.90;;;;;;5062058;28;20032;-67
2023/03/21 07:47:02;;;;;;;5.93;1.55;;;17.10;99.90;;;;;;5074529;28;20028;-67
2023/03/21 07:49:28;;;;;;;3.30;1.67;;;17.20;99.90;;;;;;5090989;28;20032;-67
2023/03/21 07:51:54;;;;;;;3.35;1.65;;;17.20;99.90;;;;;;5091851;28;20082;-67
2023/03/21 07:54:21;;;;;;;2.33;1.40;;;17.20;99.90;;;;;;5091763;28;20343;-66
2023/03/21 07:56:48;;;;;;;4.00;1.50;;;17.20;99.90;;;;;;5074407;28;20032;-66
2023/03/21 07:59:14;;;;;;;3.47;1.30;;;17.20;99.90;;;;;;5057362;28;20339;-66
2023/03/21 08:01:40;;;;;;;3.85;1.50;;;17.30;99.90;;;;;;5073740;28;20067;-67
2023/03/21 08:04:07;;;;;;;4.05;1.80;;;17.30;99.90;;;;;;5090293;28;20055;-67
2023/03/21 08:06:33;;;;;;;3.08;1.77;;;17.30;99.90;;;;;;5091914;28;20055;-68
2023/03/21 08:08:59;;;;;;;3.13;1.58;;;17.40;99.90;;;;;;5091918;28;20028;-65
2023/03/21 08:11:26;;;;;;;3.88;1.63;;;17.50;99.90;;;;;;5091604;28;20420;-65
2023/03/21 08:13:52;;;;;;;4.03;1.40;;;17.50;99.90;;;;;;5091576;28;20032;-66
2023/03/21 08:16:19;;;;;;;3.53;1.60;;;17.50;99.90;;;;;;5071857;28;20041;-66
2023/03/21 08:18:45;;;;;;;4.45;1.90;;;17.60;99.90;;;;;;5073888;28;20441;-66
2023/03/21 08:21:11;;;;;;;3.90;1.50;;;17.60;99.90;;;;;;5077781;28;20090;-66
2023/03/21 08:23:37;;;;;;;2.78;1.35;;;17.60;99.90;;;;;;5077526;28;20327;-65
2023/03/21 08:26:03;;;;;;;2.65;1.60;;;17.60;99.90;;;;;;5060702;28;20380;-65
2023/03/21 08:28:29;;;;;;;3.50;1.35;;;17.60;99.90;;;;;;5077897;28;20028;-65
2023/03/21 08:30:55;;;;;;;4.15;1.50;;;17.60;99.90;;;;;;5067406;28;20024;-65
2023/03/21 08:33:21;;;;;;;3.55;1.40;;;17.60;99.90;;;;;;5076860;28;20039;-65
2023/03/21 08:35:48;;;;;;;3.95;1.60;;;17.60;99.90;;;;;;5077918;28;20032;-66
2023/03/21 08:38:14;;;;;;;1.63;1.13;;;17.60;99.90;;;;;;5077360;28;20373;-66
2023/03/21 08:40:40;;;;;;;1.70;1.15;;;17.60;99.90;;;;;;5078003;28;20037;-66
2023/03/21 08:43:06;;;;;;;12.07;1.60;;;17.60;99.90;;;;;;5077498;28;20063;-66
2023/03/21 08:45:32;;;;;;;3.03;1.20;;;17.60;99.90;;;;;;5077732;28;20064;-65
2023/03/21 08:47:58;;;;;;;2.85;1.40;;;17.60;99.90;;;;;;5076646;28;20024;-65
2023/03/21 08:50:28;;;;;;;3.08;1.30;;;17.60;99.90;;;;;;5076710;28;20033;-65
2023/03/21 08:52:54;;;;;;;2.63;1.40;;;17.60;99.90;;;;;;5078010;28;20052;-65
2023/03/21 08:55:20;;;;;;;4.40;1.60;;;17.60;99.90;;;;;;5077541;28;20041;-66
2023/03/21 08:57:46;;;;;;;3.42;1.13;;;17.60;99.90;;;;;;5077302;28;20423;-65
2023/03/21 09:00:16;;;;;;;3.45;1.30;;;17.50;99.90;;;;;;5059985;28;20036;-65
2023/03/21 09:02:44;;;;;;;3.85;1.40;;;17.50;99.90;;;;;;5058800;28;20067;-65
2023/03/21 09:05:11;;;;;;;3.60;1.40;;;17.50;99.90;;;;;;5077433;28;20041;-65
2023/03/21 09:07:38;;;;;;;4.57;1.60;;;17.50;99.90;;;;;;5077150;28;20024;-65
2023/03/21 09:10:05;;;;;;;6.80;1.80;;;17.50;99.90;;;;;;5077521;28;20034;-65
2023/03/21 09:12:32;;;;;;;4.43;1.58;;;17.50;99.90;;;;;;5077130;28;20048;-65
2023/03/21 09:15:01;;;;;;;5.32;1.65;;;17.50;99.90;;;;;;5077377;28;20039;-66
2023/03/21 09:17:31;;;;;;;6.18;1.73;;;17.50;99.90;;;;;;5076850;28;20075;-65
2023/03/21 09:19:59;;;;;;;5.13;1.77;;;17.50;99.90;;;;;;5076907;28;20025;-65
2023/03/21 09:22:27;;;;;;;3.88;1.90;;;17.50;99.90;;;;;;5076935;28;20040;-65
2023/03/21 09:24:54;;;;;;;4.70;1.80;;;17.40;99.90;;;;;;5077129;28;20063;-65
2023/03/21 09:27:22;;;;;;;3.33;1.50;;;17.40;99.90;;;;;;5058552;28;20028;-65
2023/03/21 09:29:51;;;;;;;4.15;1.60;;;17.40;99.90;;;;;;5076607;28;20021;-65
2023/03/21 09:32:17;;;;;;;3.53;1.40;;;17.40;99.90;;;;;;5077113;28;20327;-65
2023/03/21 09:34:44;;;;;;;4.35;1.40;;;17.40;99.90;;;;;;5075614;28;20040;-65
2023/03/21 09:37:10;;;;;;;4.45;1.80;;;17.40;99.90;;;;;;5076932;28;20029;-65
2023/03/21 09:39:36;;;;;;;4.40;1.83;;;17.40;99.90;;;;;;5076505;28;20327;-65
2023/03/21 09:42:05;;;;;;;4.78;1.90;;;17.30;99.90;;;;;;5076834;28;20036;-65
2023/03/21 09:45:00;;;;;;;7.13;1.67;;;17.40;99.90;;;;;;5076301;28;20415;-66
2023/03/21 09:47:31;;;;;;;2.70;1.50;;;17.30;99.90;;;;;;5076436;28;20024;-65
2023/03/21 09:50:06;;;;;;;3.88;1.65;;;17.30;99.90;;;;;;5076345;28;20036;-65
2023/03/21 09:52:43;;;;;;;4.05;1.42;;;17.30;99.90;;;;;;5076388;28;20419;-65
2023/03/21 09:55:23;;;;;;;5.90;1.85;;;17.30;99.90;;;;;;5076664;28;20029;-65
2023/03/21 09:58:06;;;;;;;6.32;2.10;;;17.30;99.90;;;;;;5076261;28;20028;-66
2023/03/21 10:00:38;;;;;;;4.55;1.75;;;17.30;99.90;;;;;;5076326;28;20033;-65
2023/03/21 10:03:18;;;;;;;4.93;1.75;;;17.30;99.90;;;;;;5057532;28;20353;-66
2023/03/21 10:05:47;;;;;;;4.60;1.63;;;17.30;99.90;;;;;;5075981;28;20041;-65
2023/03/21 10:08:18;;;;;;;4.57;1.83;;;17.30;99.90;;;;;;5076202;28;20035;-65
2023/03/21 10:11:01;;;;;;;3.88;1.77;;;17.20;99.90;;;;;;5076079;28;20036;-65
2023/03/21 10:13:31;;;;;;;4.53;1.65;;;17.30;99.90;;;;;;5075859;28;20339;-65
2023/03/21 10:16:00;;;;;;;6.07;1.90;;;17.30;99.90;;;;;;5076278;28;20036;-65
2023/03/21 10:18:29;;;;;;;3.88;1.80;;;17.20;99.90;;;;;;5057276;28;20212;-65
2023/03/21 10:20:56;;;;;;;4.63;1.90;;;17.20;99.90;;;;;;5076115;28;20035;-65
2023/03/21 10:23:27;;;;;;;3.80;1.85;;;17.30;99.90;;;;;;5058422;28;20420;-66
2023/03/21 10:26:06;;;;;;;3.63;1.70;;;17.30;99.90;;;;;;5076081;28;20032;-65
2023/03/21 10:28:37;;;;;;;3.67;1.65;;;17.20;99.90;;;;;;5058065;28;20029;-65
2023/03/21 10:31:06;;;;;;;4.45;1.73;;;17.30;99.90;;;;;;5057260;28;20032;-66
2023/03/21 10:33:38;;;;;;;4.75;1.70;;;17.20;99.90;;;;;;5054623;28;20031;-65
2023/03/21 10:36:26;;;;;;;7.60;1.83;;;17.30;99.90;;;;;;5055959;28;20029;-65
2023/03/21 10:38:56;;;;;;;3.47;1.77;;;17.20;99.90;;;;;;5063728;28;20028;-65
2023/03/21 10:41:22;;;;;;;3.67;1.70;;;17.20;99.90;;;;;;5068404;28;20040;-65
2023/03/21 10:44:10;;;;;;;3.20;1.60;;;17.20;99.90;;;;;;5037677;28;20488;-64
2023/03/21 10:46:36;;;;;;;3.85;1.75;;;17.30;99.90;;;;;;5056203;28;20055;-64
2023/03/21 10:49:06;;;;;;;4.20;1.90;;;17.20;99.90;;;;;;5064734;28;20055;-64
2023/03/21 10:51:35;;;;;;;6.18;1.92;;;17.30;99.90;;;;;;5055506;28;20040;-65
2023/03/21 10:54:10;;;;;;;6.38;2.00;;;17.30;99.90;;;;;;5055514;28;20029;-64
2023/03/21 10:56:42;;;;;;;4.15;1.60;;;17.30;99.90;;;;;;5055500;28;20444;-65
2023/03/21 10:59:15;;;;;;;11.05;5.32;;;17.30;99.90;;;;;;5055485;28;20029;-65
2023/03/21 11:01:45;;;;;;;3.70;1.73;;;17.40;99.90;;;;;;5055378;28;20493;-65
2023/03/21 11:04:17;;;;;;;6.05;1.83;;;17.40;99.90;;;;;;5070341;28;20316;-65
2023/03/21 11:06:51;;;;;;;5.95;1.83;;;17.50;99.90;;;;;;5075332;28;20044;-65
2023/03/21 11:09:20;;;;;;;4.72;1.80;;;17.50;99.90;;;;;;5075424;28;20055;-64
2023/03/21 11:12:11;;;;;;;4.50;1.83;;;17.50;99.90;;;;;;5075284;28;21005;-64
2023/03/21 11:14:48;;;;;;;5.38;1.70;;;17.50;99.90;;;;;;5075119;28;20039;-64
2023/03/21 11:17:17;;;;;;;6.18;1.88;;;17.50;99.90;;;;;;5075560;28;20434;-64
2023/03/21 11:19:51;;;;;;;3.83;1.83;;;17.50;99.90;;;;;;5073899;28;20031;-64
2023/03/21 11:22:21;;;;;;;7.20;2.15;;;17.50;99.90;;;;;;5075452;28;20033;-65
2023/03/21 11:25:01;;;;;;;5.45;1.98;;;17.50;99.90;;;;;;5057085;28;20725;-65
2023/03/21 11:27:30;;;;;;;4.80;2.13;;;17.50;99.90;;;;;;5057721;28;20108;-65
2023/03/21 11:29:59;;;;;;;5.43;2.13;;;17.50;99.90;;;;;;5065796;28;20540;-64
2023/03/21 11:32:36;;;;;;;4.05;1.67;;;17.50;99.90;;;;;;5037787;28;20025;-68
2023/03/21 11:35:19;;;;;;;6.30;1.95;;;17.50;99.90;;;;;;5055425;28;20039;-66
2023/03/21 11:37:50;;;;;;;4.40;2.00;;;17.50;99.90;;;;;;5054839;28;20029;-66
2023/03/21 11:40:34;;;;;;;3.72;2.05;;;17.60;99.90;;;;;;5055321;28;20075;-66
2023/03/21 11:43:15;;;;;;;5.20;2.13;;;17.60;99.90;;;;;;5055014;28;20032;-66
2023/03/21 11:46:13;;;;;;;7.07;2.28;;;17.60;99.90;;;;;;5054937;28;20096;-66
2023/03/21 11:48:47;;;;;;;7.63;1.92;;;17.60;99.90;;;;;;5053891;28;20025;-66
2023/03/21 11:51:34;;;;;;;5.93;1.92;;;17.60;99.90;;;;;;5058048;28;20293;-66
2023/03/21 11:54:25;;;;;;;5.45;1.98;;;17.60;99.90;;;;;;5058697;28;20036;-66
2023/03/21 11:57:29;;;;;;;5.80;2.00;;;17.60;99.90;;;;;;5058568;28;20340;-66
2023/03/21 12:00:13;;;;;;;7.22;2.00;;;17.60;99.90;;;;;;5040526;28;20049;-66
2023/03/21 12:02:57;;;;;;;5.10;2.17;;;17.60;99.90;;;;;;5057949;28;20039;-66
2023/03/21 12:05:33;;;;;;;4.05;2.00;;;17.60;99.90;;;;;;5076728;28;20056;-66
2023/03/21 12:08:11;;;;;;;5.32;2.03;;;17.60;99.90;;;;;;5060447;28;20412;-66
2023/03/21 12:10:52;;;;;;;5.85;2.08;;;17.50;99.90;;;;;;5059629;28;20110;-66
2023/03/21 12:13:36;;;;;;;4.85;2.10;;;17.50;99.90;;;;;;5059856;28;20055;-66
2023/03/21 12:16:05;;;;;;;5.60;2.35;;;17.50;99.90;;;;;;5041165;28;20124;-65
2023/03/21 12:18:34;;;;;;;7.03;2.20;;;17.60;99.90;;;;;;5041026;28;20118;-65
2023/03/21 12:21:30;;;;;;;5.78;2.05;;;17.60;99.90;;;;;;5059050;28;20324;-66
2023/03/21 12:24:21;;;;;;;4.78;1.90;;;17.60;99.90;;;;;;5055551;28;20045;-65
2023/03/21 12:26:49;;;;;;;4.70;2.20;;;17.60;99.90;;;;;;5060432;28;20102;-64
2023/03/21 12:30:03;;;;;;;6.18;2.00;;;17.60;99.90;;;;;;5063969;28;20051;-65
2023/03/21 12:32:51;;;;;;;4.43;1.90;;;17.60;99.90;;;;;;5073005;28;20477;-66
2023/03/21 12:35:40;;;;;;;5.00;2.10;;;17.60;99.90;;;;;;5078265;28;20442;-65
2023/03/21 12:38:27;;;;;;;3.80;1.80;;;17.60;99.90;;;;;;5077910;28;20439;-65
2023/03/21 12:41:16;;;;;;;4.78;2.08;;;17.60;99.90;;;;;;5077798;28;20033;-65
2023/03/21 12:43:50;;;;;;;4.40;2.00;;;17.60;99.90;;;;;;5077571;28;20020;-65
2023/03/21 12:46:43;;;;;;;5.03;2.00;;;17.60;99.90;;;;;;5078425;28;20029;-65
2023/03/21 12:49:19;;;;;;;4.65;1.98;;;17.60;99.90;;;;;;5059038;28;20394;-65
2023/03/21 12:51:47;;;;;;;;;;;17.60;99.90;;;;;;5078135;28;20423;-66
2023/03/21 12:54:41;;;;;;;5.45;1.98;;;17.60;99.90;;;;;;5060083;28;19957;-65
2023/03/21 12:57:18;;;;;;;5.45;2.17;;;17.60;99.90;;;;;;5079280;28;20036;-65
2023/03/21 13:00:14;;;;;;;5.45;1.85;;;17.60;99.90;;;;;;5079264;28;20036;-65
2023/03/21 13:02:58;;;;;;;4.60;1.75;;;17.70;99.90;;;;;;5077699;28;20028;-68
2023/03/21 13:05:36;;;;;;;5.90;1.90;;;17.80;99.90;;;;;;5079855;28;20390;-67
2023/03/21 13:08:27;;;;;;;4.85;2.17;;;17.90;99.90;;;;;;5077159;28;20102;-67
2023/03/21 13:10:54;;;;;;;7.07;1.80;;;18.00;99.90;;;;;;5074967;28;20050;-68
2023/03/21 13:13:33;;;;;;;5.78;2.20;;;18.10;99.90;;;;;;5076156;28;20025;-68
2023/03/21 13:16:11;;;;;;;4.80;1.90;;;18.10;99.90;;;;;;5057204;28;20033;-68
2023/03/21 13:19:05;;;;;;;4.85;1.88;;;18.10;99.90;;;;;;5055801;28;20122;-68
2023/03/21 13:22:10;;;;;;;5.30;2.00;;;18.10;99.90;;;;;;5057294;28;20033;-68
2023/03/21 13:24:49;;;;;;;5.57;1.90;;;18.10;99.90;;;;;;5056767;28;20029;-68
2023/03/21 13:27:29;;;;;;;6.47;1.95;;;18.10;99.90;;;;;;5057260;28;20051;-67
2023/03/21 13:30:22;;;;;;;4.40;1.80;;;18.00;99.90;;;;;;5062872;28;20414;-68
2023/03/21 13:32:50;;;;;;;6.97;2.10;;;18.00;99.90;;;;;;5063733;28;20383;-68
2023/03/21 13:35:19;;;;;;;5.38;1.80;;;18.00;99.90;;;;;;5076378;28;20051;-68
2023/03/21 13:38:12;;;;;;;6.05;1.90;;;18.00;99.90;;;;;;5075443;28;20123;-68
2023/03/21 13:41:00;;;;;;;5.22;1.80;;;18.10;99.90;;;;;;5029307;28;20032;-68
2023/03/21 13:43:43;;;;;;;4.05;1.70;;;18.00;99.90;;;;;;5055430;28;20037;-68
2023/03/21 13:46:25;;;;;;;3.47;1.77;;;18.00;99.90;;;;;;5039731;28;20036;-68
2023/03/21 13:48:51;;;;;;;5.25;1.73;;;18.00;99.90;;;;;;5055302;28;20104;-68
2023/03/21 13:51:35;;;;;;;3.75;1.67;;;18.00;99.90;;;;;;5056704;28;20488;-67
2023/03/21 13:54:07;;;;;;;3.70;1.70;;;18.00;99.90;;;;;;5056188;28;20112;-68
2023/03/21 13:56:45;;;;;;;5.40;2.05;;;17.90;99.90;;;;;;5056563;28;20036;-68
2023/03/21 13:59:16;;;;;;;3.17;1.52;;;17.90;99.90;;;;;;5056369;28;20028;-68
2023/03/21 14:02:08;;;;;;;4.22;1.88;;;17.90;99.90;;;;;;5058705;28;20032;-68
2023/03/21 14:04:34;;;;;;;5.68;2.20;;;17.90;99.90;;;;;;5065720;28;20473;-68
2023/03/21 14:07:11;;;;;;;4.90;1.75;;;17.90;99.90;;;;;;5076136;28;20032;-68
2023/03/21 14:09:45;;;;;;;4.13;1.83;;;17.90;99.90;;;;;;5076541;28;20091;-69
2023/03/21 14:12:21;;;;;;;4.47;1.73;;;17.90;99.90;;;;;;5076081;28;20041;-68
2023/03/21 14:15:21;;;;;;;3.97;1.80;;;17.80;99.90;;;;;;5075724;28;20040;-68
2023/03/21 14:17:53;;;;;;;4.93;1.70;;;17.90;99.90;;;;;;5074630;28;20139;-68
2023/03/21 14:20:24;;;;;;;4.53;2.00;;;17.90;99.90;;;;;;5058687;28;20036;-68
2023/03/21 14:22:50;;;;;;;5.70;1.88;;;17.90;99.90;;;;;;5075554;28;20020;-69
2023/03/21 14:25:19;;;;;;;4.25;1.92;;;17.80;99.90;;;;;;5075967;28;20029;-69
2023/03/21 14:27:54;;;;;;;4.50;1.83;;;17.80;99.90;;;;;;5074444;28;20692;-68
2023/03/21 14:30:23;;;;;;;5.40;1.83;;;17.90;99.90;;;;;;5075396;28;20024;-68
2023/03/21 14:32:49;;;;;;;4.70;1.90;;;17.80;99.90;;;;;;5056751;28;20033;-68
2023/03/21 14:35:16;;;;;;;7.57;2.70;;;17.80;99.90;;;;;;5072163;28;20082;-68
2023/03/21 14:37:44;;;;;;;4.10;1.70;;;17.80;99.90;;;;;;5067764;28;20029;-68
2023/03/21 14:40:22;;;;;;;4.93;1.85;;;17.80;99.90;;;;;;5068451;28;20354;-67
2023/03/21 14:42:50;;;;;;;4.68;2.00;;;17.80;99.90;;;;;;5071684;28;20039;-68
2023/03/21 14:45:23;;;;;;;5.72;1.70;;;17.80;99.90;;;;;;5071391;28;20103;-68
2023/03/21 14:48:16;;;;;;;4.05;1.58;;;17.80;99.90;;;;;;5052381;28;20059;-69
2023/03/21 14:50:45;;;;;;;4.47;1.75;;;17.80;99.90;;;;;;5052099;28;20033;-68
2023/03/21 14:53:19;;;;;;;3.75;1.90;;;17.70;99.90;;;;;;5068898;28;20029;-69
2023/03/21 14:56:09;;;;;;;6.03;2.05;;;17.80;99.90;;;;;;5070690;28;20020;-69
2023/03/21 14:58:40;;;;;;;4.95;1.60;;;17.70;99.90;;;;;;5047410;28;20052;-69
2023/03/21 15:01:16;;;;;;;5.82;1.92;;;17.70;99.90;;;;;;5055406;28;20029;-69
2023/03/21 15:03:46;;;;;;;6.30;1.95;;;17.70;99.90;;;;;;5054391;28;20032;-69
2023/03/21 15:06:13;;;;;;;5.03;1.80;;;17.70;99.90;;;;;;5055450;28;20049;-70
2023/03/21 15:08:52;;;;;;;4.97;1.58;;;17.70;99.90;;;;;;5055386;28;20044;-70
2023/03/21 15:11:17;;;;;;;3.85;1.77;;;17.70;99.90;;;;;;5043606;28;20036;-70
2023/03/21 15:13:51;;;;;;;4.15;1.67;;;17.70;99.90;;;;;;5067736;28;20029;-70
2023/03/21 15:16:18;;;;;;;4.00;1.58;;;17.60;99.90;;;;;;5073135;28;20035;-70
2023/03/21 15:18:45;;;;;;;3.22;1.70;;;17.70;99.90;;;;;;5074266;28;20109;-70
2023/03/21 15:21:23;;;;;;;3.90;1.67;;;17.60;99.90;;;;;;5074511;28;20032;-70
2023/03/21 15:23:55;;;;;;;4.13;1.73;;;17.60;99.90;;;;;;5083356;28;20077;-69
2023/03/21 15:26:24;;;;;;;3.95;1.70;;;17.60;99.90;;;;;;5079165;28;20035;-69
2023/03/21 15:28:55;;;;;;;3.35;1.67;;;17.60;99.90;;;;;;5096859;28;20047;-70
2023/03/21 15:31:24;;;;;;;5.13;1.60;;;17.60;99.90;;;;;;5060107;28;20020;-71
2023/03/21 15:33:53;;;;;;;4.82;1.65;;;17.60;99.90;;;;;;5058706;28;20031;-69
2023/03/21 15:36:31;;;;;;;4.63;1.60;;;17.60;99.90;;;;;;5077759;28;20028;-69
2023/03/21 15:39:01;;;;;;;4.60;1.80;;;17.50;99.90;;;;;;5078036;28;20442;-69
2023/03/21 15:41:30;;;;;;;4.78;1.65;;;17.50;99.90;;;;;;5079295;28;20028;-69
2023/03/21 15:44:01;;;;;;;5.43;1.80;;;17.50;99.90;;;;;;5078691;28;20039;-70
2023/03/21 15:46:43;;;;;;;5.60;1.75;;;17.50;99.90;;;;;;5079188;28;20082;-69
2023/03/21 15:49:11;;;;;;;4.47;1.70;;;17.50;99.90;;;;;;5077555;28;20020;-70
2023/03/21 15:51:39;;;;;;;3.55;1.50;;;17.50;99.90;;;;;;5078826;28;20043;-70
2023/03/21 15:54:35;;;;;;;4.22;1.60;;;17.50;99.90;;;;;;5044394;28;20040;-69
2023/03/21 15:57:08;;;;;;;3.10;1.50;;;17.50;99.90;;;;;;5058354;28;20044;-69
2023/03/21 15:59:40;;;;;;;3.15;1.33;;;17.50;99.90;;;;;;5078772;28;20031;-69
2023/03/21 16:02:17;;;;;;;3.40;1.60;;;17.50;99.90;;;;;;5078563;28;20028;-70
2023/03/21 16:05:22;;;;;;;4.85;1.73;;;17.50;99.90;;;;;;5077329;28;20238;-69
2023/03/21 16:07:49;;;;;;;4.05;1.58;;;17.40;99.90;;;;;;5075682;28;20439;-69
2023/03/21 16:10:36;;;;;;;5.18;1.88;;;17.50;99.90;;;;;;5078808;28;20032;-69
2023/03/21 16:13:03;;;;;;;4.30;1.67;;;17.40;99.90;;;;;;5078210;28;20032;-69
2023/03/21 16:15:30;;;;;;;5.75;1.90;;;17.40;99.90;;;;;;5078534;28;20439;-69
2023/03/21 16:17:59;;;;;;;3.50;1.77;;;17.40;99.90;;;;;;5077076;28;20054;-69
2023/03/21 16:20:27;;;;;;;3.20;1.60;;;17.40;99.90;;;;;;5060867;28;20024;-70
2023/03/21 16:22:53;;;;;;;3.03;1.52;;;17.40;99.90;;;;;;5077972;28;20029;-69
2023/03/21 16:25:20;;;;;;;4.72;1.70;;;17.40;99.90;;;;;;5078430;28;20408;-69
2023/03/21 16:27:47;;;;;;;3.65;1.40;;;17.40;99.90;;;;;;5078213;28;20029;-69
2023/03/21 16:30:15;;;;;;;4.15;1.77;;;17.40;99.90;;;;;;5066237;28;20037;-69
2023/03/21 16:32:41;;;;;;;3.42;1.55;;;17.40;99.90;;;;;;5039476;28;20028;-69
2023/03/21 16:35:07;;;;;;;2.75;1.52;;;17.40;99.90;;;;;;5057816;28;20047;-69
2023/03/21 16:37:33;;;;;;;4.35;1.73;;;17.40;99.90;;;;;;5057684;28;20032;-69
2023/03/21 16:39:59;;;;;;;4.30;2.03;;;17.40;99.90;;;;;;5057922;28;20339;-69
2023/03/21 16:42:25;;;;;;;3.65;1.80;;;17.40;99.90;;;;;;5040341;28;20450;-69
2023/03/21 16:44:51;;;;;;;2.20;1.42;;;17.30;99.90;;;;;;5050936;28;20041;-69
2023/03/21 16:47:19;;;;;;;2.97;1.50;;;17.30;99.90;;;;;;5058097;28;20064;-69
2023/03/21 16:49:45;;;;;;;4.68;2.00;;;17.30;99.90;;;;;;5056717;28;20036;-69
2023/03/21 16:52:12;;;;;;;3.33;1.63;;;17.30;99.90;;;;;;5057581;28;20080;-69
2023/03/21 16:54:41;;;;;;;2.65;1.50;;;17.30;99.90;;;;;;5057575;28;20061;-70
2023/03/21 16:57:27;;;;;;;3.17;1.77;;;17.30;99.90;;;;;;5071200;28;20064;-69
2023/03/21 16:59:54;;;;;;;3.55;1.40;;;17.40;99.90;;;;;;5055864;28;20412;-69
2023/03/21 17:02:22;;;;;;;3.63;1.50;;;17.30;99.90;;;;;;5055739;28;20460;-70
2023/03/21 17:04:48;;;;;;;3.03;1.60;;;17.30;99.90;;;;;;5036595;28;20068;-69
2023/03/21 17:07:14;;;;;;;4.07;1.40;;;17.30;99.90;;;;;;5055554;28;20412;-69
2023/03/21 17:09:46;;;;;;;2.67;1.52;;;17.30;99.90;;;;;;5055412;28;20029;-70
2023/03/21 17:12:14;;;;;;;3.85;1.70;;;17.30;99.90;;;;;;5061966;28;20454;-70
2023/03/21 17:14:41;;;;;;;4.70;1.73;;;17.30;99.90;;;;;;5075857;28;20031;-69
2023/03/21 17:17:11;;;;;;;4.32;1.60;;;17.30;99.90;;;;;;5085713;28;20067;-70
2023/03/21 17:19:38;;;;;;;3.10;1.65;;;17.30;99.90;;;;;;5078374;28;20043;-70
2023/03/21 17:22:04;;;;;;;2.97;1.60;;;17.30;99.90;;;;;;5072481;28;20319;-70
2023/03/21 17:24:30;;;;;;;3.42;1.50;;;17.30;99.90;;;;;;5058983;28;20044;-70
2023/03/21 17:26:58;;;;;;;2.38;1.33;;;17.30;99.90;;;;;;5082331;28;20031;-70
2023/03/21 17:29:24;;;;;;;2.33;1.50;;;17.30;99.90;;;;;;5064141;28;20396;-70
2023/03/21 17:31:49;;;;;;;4.45;1.50;;;17.30;99.90;;;;;;5053667;28;20082;-70
2023/03/21 17:34:16;;;;;;;3.40;1.52;;;17.30;99.90;;;;;;5079543;28;20075;-69
2023/03/21 17:36:45;;;;;;;3.53;1.52;;;17.30;99.90;;;;;;5069652;28;20040;-69
2023/03/21 17:39:22;;;;;;;4.05;1.60;;;17.30;99.90;;;;;;5052162;28;20033;-69
2023/03/21 17:41:50;;;;;;;2.92;1.50;;;17.30;99.90;;;;;;5054515;28;20036;-69
2023/03/21 17:44:17;;;;;;;3.67;1.50;;;17.30;99.90;;;;;;5054016;28;20725;-69
2023/03/21 17:46:43;;;;;;;2.88;1.40;;;17.30;99.90;;;;;;5054082;28;20424;-68
2023/03/21 17:49:13;;;;;;;3.30;1.50;;;17.30;99.90;;;;;;5051271;28;20027;-68
2023/03/21 17:51:39;;;;;;;2.17;1.20;;;17.30;99.90;;;;;;5074201;28;20029;-69
2023/03/21 17:54:05;;;;;;;3.97;1.60;;;17.30;99.90;;;;;;5073925;28;20033;-69
2023/03/21 17:56:33;;;;;;;3.95;1.63;;;17.30;99.90;;;;;;5074167;28;20028;-67
2023/03/21 17:59:10;;;;;;;3.08;1.60;;;17.30;99.90;;;;;;5073565;28;20056;-68
